createdAt,value
2019-03-08T00:03:55.054Z,59.54
2019-03-08T00:06:05.944Z,59.30
2019-03-08T00:08:16.873Z,59.13
2019-03-08T00:10:27.669Z,59.34
2019-03-08T00:12:38.598Z,59.32
2019-03-08T00:14:49.391Z,59.81
2019-03-08T00:17:00.172Z,60.57
2019-03-08T00:19:11.020Z,60.98
2019-03-08T00:21:21.798Z,60.88
2019-03-08T00:23:32.634Z,61.27
2019-03-08T00:25:43.721Z,61.16
2019-03-08T00:27:56.298Z,60.92
2019-03-08T00:30:50.657Z,61.09
2019-03-08T00:33:01.487Z,60.61
2019-03-08T00:35:12.293Z,60.77
2019-03-08T00:37:23.098Z,60.56
2019-03-08T00:39:33.948Z,60.30
2019-03-08T00:41:44.806Z,60.19
2019-03-08T00:43:57.570Z,60.37
2019-03-08T00:46:10.287Z,60.05
2019-03-08T00:48:21.231Z,60.16
2019-03-08T00:50:32.012Z,59.86
2019-03-08T00:52:42.810Z,60.09
2019-03-08T00:54:53.627Z,60.33
2019-03-08T00:57:04.560Z,59.99
2019-03-08T00:59:15.377Z,60.22
2019-03-08T01:01:26.175Z,59.69
2019-03-08T01:03:36.988Z,59.62
2019-03-08T01:05:47.805Z,59.79
2019-03-08T01:07:58.715Z,59.82
2019-03-08T01:10:51.295Z,59.97
2019-03-08T01:13:02.193Z,59.85
2019-03-08T01:15:54.656Z,59.86
2019-03-08T01:18:05.468Z,59.75
2019-03-08T01:20:57.932Z,59.85
2019-03-08T01:23:08.708Z,59.67
2019-03-08T01:25:21.486Z,60.02
2019-03-08T01:27:32.356Z,59.85
2019-03-08T01:29:43.148Z,59.85
2019-03-08T01:31:54.175Z,59.84
2019-03-08T01:34:05.075Z,59.65
2019-03-08T01:36:15.882Z,59.68
2019-03-08T01:38:26.677Z,59.92
2019-03-08T01:40:37.481Z,60.10
2019-03-08T01:42:48.410Z,59.98
2019-03-08T01:44:59.216Z,60.02
2019-03-08T01:47:10.034Z,59.67
2019-03-08T01:49:20.833Z,59.81
2019-03-08T01:51:31.651Z,59.75
2019-03-08T01:53:42.457Z,59.78
2019-03-08T01:55:55.204Z,59.76
2019-03-08T01:58:07.968Z,59.88
2019-03-08T02:01:00.435Z,59.77
2019-03-08T02:03:11.258Z,59.98
2019-03-08T02:05:22.150Z,60.02
2019-03-08T02:07:33.310Z,59.74
2019-03-08T02:09:45.679Z,59.82
2019-03-08T02:11:56.507Z,59.80
2019-03-08T02:14:09.196Z,59.90
2019-03-08T02:16:20.079Z,60.39
2019-03-08T02:18:31.131Z,60.74
2019-03-08T02:20:41.935Z,60.73
2019-03-08T02:22:52.838Z,60.88
2019-03-08T02:25:45.740Z,60.89
2019-03-08T02:27:56.604Z,61.16
2019-03-08T02:30:50.962Z,61.49
2019-03-08T02:33:01.790Z,61.75
2019-03-08T02:35:54.247Z,62.02
2019-03-08T02:38:05.192Z,62.36
2019-03-08T02:40:36.647Z,62.54
2019-03-08T02:42:47.432Z,62.76
2019-03-08T02:45:00.336Z,63.09
2019-03-08T02:47:11.155Z,63.85
2019-03-08T02:49:21.968Z,64.38
2019-03-08T02:51:32.861Z,64.43
2019-03-08T02:53:43.731Z,64.61
2019-03-08T02:55:54.527Z,64.94
2019-03-08T02:58:05.338Z,65.38
2019-03-08T03:00:57.823Z,65.63
2019-03-08T03:03:08.626Z,65.90
2019-03-08T03:05:19.467Z,66.09
2019-03-08T03:07:30.267Z,66.07
2019-03-08T03:09:41.173Z,66.12
2019-03-08T03:11:51.982Z,66.00
2019-03-08T03:14:02.896Z,66.33
2019-03-08T03:16:13.802Z,66.58
2019-03-08T03:18:24.617Z,66.35
2019-03-08T03:20:35.406Z,66.51
2019-03-08T03:22:46.259Z,66.58
2019-03-08T03:25:39.059Z,66.48
2019-03-08T03:27:49.851Z,66.96
2019-03-08T03:30:00.669Z,69.84
2019-03-08T03:32:11.467Z,70.96
2019-03-08T03:34:22.285Z,72.72
2019-03-08T03:36:33.097Z,73.94
2019-03-08T03:38:43.904Z,74.71
2019-03-08T03:43:19.031Z,76.07
2019-03-08T03:45:30.048Z,76.94
2019-03-08T03:47:40.835Z,77.60
2019-03-08T03:49:51.623Z,77.49
2019-03-08T03:52:02.434Z,78.20
2019-03-08T03:54:13.228Z,78.19
2019-03-08T03:56:24.044Z,77.98
2019-03-08T03:58:34.966Z,78.04
2019-03-08T04:00:45.859Z,78.11
2019-03-08T04:02:56.688Z,77.93
2019-03-08T04:07:46.472Z,77.71
2019-03-08T04:09:57.363Z,77.96
2019-03-08T04:12:08.177Z,78.29
2019-03-08T04:14:18.975Z,78.40
2019-03-08T04:16:29.802Z,78.61
2019-03-08T04:18:40.697Z,78.18
2019-03-08T04:20:51.595Z,78.07
2019-03-08T04:23:02.506Z,78.17
2019-03-08T04:25:13.504Z,77.65
2019-03-08T04:27:24.317Z,77.66
2019-03-08T04:29:35.122Z,78.20
2019-03-08T04:31:45.916Z,77.72
2019-03-08T04:33:56.714Z,77.45
2019-03-08T04:36:07.513Z,77.33
2019-03-08T04:38:18.339Z,77.11
2019-03-08T04:40:29.137Z,77.25
2019-03-08T04:42:40.370Z,76.29
2019-03-08T04:44:51.134Z,76.45
2019-03-08T04:47:01.942Z,76.64
2019-03-08T04:49:12.753Z,76.18
2019-03-08T04:51:23.544Z,75.18
2019-03-08T04:53:34.364Z,75.82
2019-03-08T04:55:45.161Z,75.72
2019-03-08T04:57:55.980Z,74.96
2019-03-08T05:00:26.663Z,75.13
2019-03-08T05:02:37.475Z,74.93
2019-03-08T05:04:48.301Z,74.50
2019-03-08T05:06:59.078Z,74.54
2019-03-08T05:09:09.889Z,75.40
2019-03-08T05:11:20.713Z,74.81
2019-03-08T05:13:33.427Z,75.00
2019-03-08T05:15:44.222Z,74.62
2019-03-08T05:17:55.027Z,74.35
2019-03-08T05:20:47.479Z,74.95
2019-03-08T05:22:58.275Z,74.78
2019-03-08T05:25:50.761Z,74.42
2019-03-08T05:28:01.560Z,74.17
2019-03-08T05:30:32.248Z,74.64
2019-03-08T05:32:43.140Z,75.06
2019-03-08T05:34:53.965Z,74.61
2019-03-08T05:37:04.765Z,74.95
2019-03-08T05:39:57.230Z,74.75
2019-03-08T05:42:08.322Z,74.18
2019-03-08T05:44:19.152Z,74.23
2019-03-08T05:46:29.950Z,74.16
2019-03-08T05:48:40.737Z,74.22
2019-03-08T05:50:51.588Z,73.74
2019-03-08T05:53:02.485Z,73.61
2019-03-08T05:55:13.343Z,73.85
2019-03-08T05:57:24.140Z,74.03
2019-03-08T05:59:35.040Z,74.13
2019-03-08T06:01:45.930Z,73.67
2019-03-08T06:03:56.733Z,73.85
2019-03-08T06:06:09.464Z,73.07
2019-03-08T06:08:20.265Z,72.99
2019-03-08T06:10:50.951Z,73.31
2019-03-08T06:13:43.601Z,73.41
2019-03-08T06:15:54.553Z,73.25
2019-03-08T06:18:05.376Z,74.75
2019-03-08T06:20:16.183Z,73.05
2019-03-08T06:22:27.014Z,71.94
2019-03-08T06:24:37.815Z,71.29
2019-03-08T06:26:50.586Z,70.13
2019-03-08T06:29:01.319Z,69.45
2019-03-08T06:31:12.155Z,69.89
2019-03-08T06:33:22.946Z,70.10
2019-03-08T06:35:33.734Z,70.20
2019-03-08T06:37:44.554Z,70.77
2019-03-08T06:39:55.395Z,71.24
2019-03-08T06:42:06.219Z,71.02
2019-03-08T06:44:17.090Z,71.16
2019-03-08T06:46:27.922Z,71.46
2019-03-08T06:48:38.855Z,71.13
2019-03-08T06:50:49.663Z,71.57
2019-03-08T06:53:00.509Z,71.82
2019-03-08T06:55:31.204Z,70.90
2019-03-08T06:57:42.272Z,70.90
2019-03-08T07:04:44.361Z,70.95
2019-03-08T07:06:57.148Z,69.52
2019-03-08T07:09:49.633Z,69.92
2019-03-08T07:12:00.441Z,69.96
2019-03-08T07:14:11.273Z,70.52
2019-03-08T07:16:22.060Z,70.41
2019-03-08T07:18:32.902Z,70.37
2019-03-08T07:21:05.619Z,70.17
2019-03-08T07:25:58.679Z,69.76
2019-03-08T07:28:29.367Z,69.95
2019-03-08T07:31:00.051Z,70.08
2019-03-08T07:35:49.702Z,69.50
2019-03-08T07:43:11.516Z,68.15
2019-03-08T07:45:44.265Z,68.37
2019-03-08T07:48:14.842Z,67.61
2019-03-08T07:53:04.398Z,68.82
2019-03-08T07:55:35.097Z,68.65
2019-03-08T07:58:05.780Z,68.24
2019-03-08T08:00:36.503Z,68.62
2019-03-08T08:07:58.326Z,65.43
2019-03-08T08:10:50.811Z,64.67
2019-03-08T08:15:53.860Z,62.14
2019-03-08T08:20:57.014Z,61.96
2019-03-08T08:23:34.052Z,62.06
2019-03-08T08:26:00.405Z,60.42
2019-03-08T08:31:03.563Z,58.81
2019-03-08T08:33:34.235Z,58.85
2019-03-08T08:36:04.958Z,59.16
2019-03-08T08:38:35.649Z,57.97
2019-03-08T08:41:06.327Z,57.42
2019-03-08T08:45:55.795Z,57.49
2019-03-08T08:50:48.684Z,57.24
2019-03-08T08:53:19.411Z,58.17
2019-03-08T08:55:50.242Z,57.70
2019-03-08T08:58:20.955Z,58.09
2019-03-08T09:00:51.666Z,58.37
2019-03-08T09:03:22.341Z,58.96
2019-03-08T09:05:53.045Z,59.48
2019-03-08T09:08:24.044Z,59.10
2019-03-08T09:10:54.757Z,59.83
2019-03-08T09:13:25.470Z,60.64
2019-03-08T09:18:28.585Z,60.17
2019-03-08T09:20:59.578Z,59.63
2019-03-08T09:23:30.296Z,59.03
2019-03-08T09:28:33.352Z,58.32
2019-03-08T09:31:04.034Z,55.90
2019-03-08T09:33:34.919Z,55.60
2019-03-08T09:36:05.614Z,55.58
2019-03-08T09:38:36.306Z,54.81
2019-03-08T09:41:06.986Z,53.37
2019-03-08T09:43:37.780Z,51.63
2019-03-08T09:46:08.657Z,51.75
2019-03-08T09:48:39.431Z,51.65
2019-03-08T09:51:10.092Z,50.42
2019-03-08T09:56:13.130Z,51.04
2019-03-08T09:58:43.998Z,50.71
2019-03-08T10:01:16.831Z,50.00
2019-03-08T10:03:47.315Z,49.31
2019-03-08T10:06:18.020Z,46.87
2019-03-08T10:11:21.080Z,45.86
2019-03-08T10:13:51.743Z,46.62
2019-03-08T10:18:41.351Z,45.12
2019-03-08T10:21:12.062Z,42.90
2019-03-08T10:23:42.836Z,42.53
2019-03-08T10:26:13.558Z,44.12
2019-03-08T10:28:44.245Z,43.58
2019-03-08T10:31:14.928Z,44.36
2019-03-08T10:33:46.739Z,45.26
2019-03-08T10:40:55.434Z,44.33
2019-03-08T10:43:26.137Z,42.04
2019-03-08T10:46:02.638Z,40.92
2019-03-08T10:50:51.796Z,41.39
2019-03-08T10:56:03.344Z,40.90
2019-03-08T10:58:34.039Z,40.97
2019-03-08T11:03:37.130Z,41.20
2019-03-08T11:06:08.106Z,41.27
2019-03-08T11:08:38.791Z,42.24
2019-03-08T11:11:09.468Z,41.66
2019-03-08T11:13:43.304Z,41.67
2019-03-08T11:16:12.734Z,42.30
2019-03-08T11:18:43.528Z,42.49
2019-03-08T11:21:15.066Z,42.80
2019-03-08T11:23:45.890Z,42.87
2019-03-08T11:28:48.931Z,43.25
2019-03-08T11:36:14.577Z,44.58
2019-03-08T11:45:42.110Z,44.71
2019-03-08T11:48:12.810Z,44.46
2019-03-08T11:55:27.858Z,46.89
2019-03-08T12:00:53.267Z,46.01
2019-03-08T12:03:24.100Z,46.32
2019-03-08T12:05:54.784Z,46.12
2019-03-08T12:08:25.455Z,47.21
2019-03-08T12:10:56.167Z,46.02
2019-03-08T12:13:27.052Z,46.25
2019-03-08T12:15:57.749Z,46.78
2019-03-08T12:18:28.446Z,45.70
2019-03-08T12:20:59.163Z,45.52
2019-03-08T12:23:29.856Z,45.86
2019-03-08T12:28:23.191Z,46.41
2019-03-08T12:30:54.038Z,45.52
2019-03-08T12:33:24.722Z,45.60
2019-03-08T12:38:14.367Z,45.96
2019-03-08T12:43:17.408Z,44.86
2019-03-08T12:45:48.263Z,44.55
2019-03-08T12:48:23.823Z,45.09
2019-03-08T12:53:23.884Z,43.99
2019-03-08T12:58:26.924Z,44.02
2019-03-08T13:00:57.725Z,43.19
2019-03-08T13:03:28.512Z,42.43
2019-03-08T13:05:59.277Z,42.38
2019-03-08T13:08:29.983Z,42.39
2019-03-08T13:10:40.899Z,42.91
2019-03-08T13:12:51.723Z,42.66
2019-03-08T13:15:44.183Z,42.87
2019-03-08T13:17:55.004Z,42.53
2019-03-08T13:20:47.474Z,42.60
2019-03-08T13:22:58.415Z,42.78
2019-03-08T13:25:09.408Z,43.06
2019-03-08T13:27:22.117Z,43.49
2019-03-08T13:29:33.041Z,44.61
2019-03-08T13:31:43.981Z,44.21
2019-03-08T13:33:54.810Z,44.86
2019-03-08T13:36:47.254Z,44.21
2019-03-08T13:38:58.085Z,43.99
2019-03-08T13:41:08.880Z,44.29
2019-03-08T13:43:19.873Z,44.01
2019-03-08T13:45:30.713Z,43.88
2019-03-08T13:47:41.561Z,44.33
2019-03-08T13:49:52.436Z,43.82
2019-03-08T13:52:03.250Z,49.57
2019-03-08T13:54:14.087Z,51.21
2019-03-08T13:56:24.884Z,52.45
2019-03-08T13:58:35.692Z,54.66
2019-03-08T14:00:46.549Z,55.86
2019-03-08T14:02:57.360Z,56.93
2019-03-08T14:05:08.598Z,57.09
2019-03-08T14:07:21.315Z,57.89
2019-03-08T14:09:32.143Z,59.45
2019-03-08T14:11:43.091Z,59.94
2019-03-08T14:13:53.913Z,59.97
2019-03-08T14:16:04.725Z,61.07
2019-03-08T14:18:15.542Z,59.90
2019-03-08T14:21:08.008Z,60.17
2019-03-08T14:23:19.023Z,59.86
2019-03-08T14:25:29.847Z,59.32
2019-03-08T14:27:40.667Z,59.64
2019-03-08T14:30:11.363Z,59.10
2019-03-08T14:34:40.934Z,59.38
2019-03-08T14:36:51.741Z,58.97
2019-03-08T14:39:45.517Z,59.56
2019-03-08T14:42:16.873Z,59.96
2019-03-08T14:44:47.546Z,60.04
2019-03-08T14:49:19.339Z,59.63
2019-03-08T14:51:29.856Z,60.20
2019-03-08T14:53:40.672Z,59.90
2019-03-08T14:55:55.161Z,59.50
2019-03-08T14:58:04.205Z,59.01
2019-03-08T15:00:56.662Z,59.00
2019-03-08T15:03:07.522Z,59.22
2019-03-08T15:05:19.079Z,58.22
2019-03-08T15:07:31.139Z,57.96
2019-03-08T15:09:41.979Z,57.31
2019-03-08T15:11:55.981Z,56.10
2019-03-08T15:14:05.622Z,55.01
2019-03-08T15:16:16.442Z,53.98
2019-03-08T15:18:29.497Z,53.84
2019-03-08T15:20:39.967Z,53.72
2019-03-08T15:22:50.780Z,52.81
2019-03-08T15:27:40.215Z,53.08
2019-03-08T15:29:54.499Z,53.36
2019-03-08T15:32:03.857Z,53.44
2019-03-08T15:34:21.484Z,53.08
2019-03-08T15:36:27.400Z,52.96
2019-03-08T15:38:38.216Z,52.36
2019-03-08T15:40:49.130Z,53.00
2019-03-08T15:42:59.920Z,52.76
2019-03-08T15:45:54.303Z,51.45
2019-03-08T15:48:05.171Z,46.59
2019-03-08T15:50:59.499Z,46.95
2019-03-08T15:53:10.375Z,44.82
2019-03-08T15:55:21.221Z,45.26
2019-03-08T15:57:32.020Z,45.25
2019-03-08T15:59:42.905Z,44.45
2019-03-08T16:01:53.685Z,44.32
2019-03-08T16:04:08.125Z,43.50
2019-03-08T16:06:19.523Z,44.03
2019-03-08T16:08:30.098Z,45.65
2019-03-08T16:10:40.944Z,46.19
2019-03-08T16:12:51.753Z,47.37
2019-03-08T16:15:44.232Z,47.02
2019-03-08T16:17:55.252Z,47.05
2019-03-08T16:20:47.700Z,47.50
2019-03-08T16:22:58.535Z,47.69
2019-03-08T16:25:51.011Z,47.25
2019-03-08T16:28:01.826Z,47.41
2019-03-08T16:30:54.308Z,47.68
2019-03-08T16:33:44.947Z,48.16
2019-03-08T16:36:37.452Z,48.03
2019-03-08T16:39:08.225Z,48.91
2019-03-08T16:41:39.078Z,49.23
2019-03-08T16:53:41.980Z,50.22
2019-03-08T16:56:12.475Z,50.47
2019-03-08T16:58:43.208Z,50.60
2019-03-08T17:01:13.916Z,51.29
2019-03-08T17:03:44.708Z,51.46
2019-03-08T17:08:47.767Z,52.19
2019-03-08T17:11:18.432Z,52.52
2019-03-08T17:13:49.218Z,53.05
2019-03-08T17:16:19.940Z,53.17
2019-03-08T17:18:50.676Z,53.12
2019-03-08T17:21:21.355Z,53.32
2019-03-08T17:23:52.064Z,53.53
2019-03-08T17:28:55.263Z,53.96
2019-03-08T17:31:25.943Z,54.68
2019-03-08T17:36:15.644Z,56.92
2019-03-08T17:38:46.565Z,58.77
2019-03-08T17:41:17.338Z,55.86
2019-03-08T17:43:48.016Z,54.14
2019-03-08T17:48:51.079Z,55.22
2019-03-08T17:51:21.790Z,56.27
2019-03-08T18:01:02.297Z,58.23
2019-03-08T18:03:33.002Z,58.89
2019-03-08T18:08:28.119Z,59.54
2019-03-08T18:13:17.232Z,59.87
2019-03-08T18:15:48.138Z,60.50
2019-03-08T18:18:18.846Z,60.61
2019-03-08T18:20:49.555Z,61.14
2019-03-08T18:23:20.231Z,61.17
2019-03-08T18:28:13.250Z,61.86
2019-03-08T18:30:43.981Z,62.16
2019-03-08T18:35:47.067Z,62.77
2019-03-08T18:38:17.755Z,62.88
2019-03-08T18:40:48.497Z,63.43
2019-03-08T18:45:51.951Z,64.13
2019-03-08T18:48:22.643Z,64.48
2019-03-08T18:53:11.754Z,64.76
2019-03-08T19:00:33.630Z,64.17
2019-03-08T19:03:04.375Z,64.21
2019-03-08T19:05:35.100Z,64.19
2019-03-08T19:08:05.812Z,64.35
2019-03-08T19:10:36.512Z,64.50
2019-03-08T19:13:07.225Z,64.48
2019-03-08T19:15:37.904Z,64.90
2019-03-08T19:20:49.042Z,64.69
2019-03-08T19:23:19.749Z,64.46
2019-03-08T19:28:22.831Z,63.72
2019-03-08T19:30:53.616Z,63.60
2019-03-08T19:35:43.092Z,63.12
2019-03-08T19:38:13.846Z,62.86
2019-03-08T19:43:16.885Z,62.69
2019-03-08T19:45:47.695Z,62.75
2019-03-08T19:48:18.500Z,62.89
2019-03-08T19:50:49.213Z,63.21
2019-03-08T19:53:19.991Z,63.44
2019-03-08T19:55:50.682Z,63.01
2019-03-08T20:03:12.635Z,63.49
2019-03-08T20:05:43.371Z,63.68
2019-03-08T20:08:14.247Z,63.65
2019-03-08T20:13:03.516Z,63.62
2019-03-08T20:15:34.250Z,63.97
2019-03-08T20:18:04.938Z,63.82
2019-03-08T20:22:54.602Z,64.10
2019-03-08T20:25:47.090Z,64.36
2019-03-08T20:28:17.798Z,64.33
2019-03-08T20:30:48.901Z,64.04
2019-03-08T20:33:19.581Z,63.79
2019-03-08T20:38:13.117Z,63.79
2019-03-08T20:40:43.865Z,63.63
2019-03-08T20:45:46.958Z,63.41
2019-03-08T20:47:57.878Z,63.05
2019-03-08T20:50:50.344Z,63.34
2019-03-08T20:53:01.166Z,63.81
2019-03-08T20:55:11.999Z,64.06
2019-03-08T20:57:22.889Z,64.50
2019-03-08T20:59:33.674Z,64.54
2019-03-08T21:01:44.536Z,64.44
2019-03-08T21:03:55.450Z,63.99
2019-03-08T21:06:06.352Z,61.39
2019-03-08T21:08:17.200Z,60.77
2019-03-08T21:10:28.002Z,60.35
2019-03-08T21:12:38.861Z,59.33
2019-03-08T21:14:49.652Z,58.86
2019-03-08T21:17:00.806Z,58.75
2019-03-08T21:19:11.620Z,58.08
2019-03-08T21:21:22.436Z,57.96
2019-03-08T21:23:33.281Z,57.85
2019-03-08T21:25:44.086Z,57.78
2019-03-08T21:27:55.048Z,57.62
2019-03-08T21:30:47.523Z,57.34
2019-03-08T21:32:58.372Z,57.33
2019-03-08T21:35:09.590Z,57.08
2019-03-08T21:37:20.375Z,57.14
2019-03-08T21:39:31.249Z,57.17
2019-03-08T21:41:42.048Z,56.99
2019-03-08T21:44:12.861Z,56.60
2019-03-08T21:46:23.662Z,56.49
2019-03-08T21:48:34.497Z,56.57
2019-03-08T21:50:45.310Z,56.53
2019-03-08T21:52:56.249Z,56.27
2019-03-08T21:55:07.176Z,56.30
2019-03-08T21:57:17.970Z,56.30
2019-03-08T21:59:28.801Z,56.26
2019-03-08T22:01:39.632Z,56.31
2019-03-08T22:08:31.778Z,56.01
2019-03-08T22:13:14.974Z,55.88
2019-03-08T22:15:25.828Z,55.84
2019-03-08T22:17:36.742Z,55.66
2019-03-08T22:19:47.579Z,55.76
2019-03-08T22:21:58.440Z,55.76
2019-03-08T22:24:13.311Z,55.73
2019-03-08T22:26:22.034Z,55.61
2019-03-08T22:28:32.928Z,55.64
2019-03-08T22:30:43.856Z,55.70
2019-03-08T22:32:54.656Z,55.63
2019-03-08T22:35:05.491Z,55.81
2019-03-08T22:37:16.303Z,55.85
2019-03-08T22:39:27.123Z,55.86
2019-03-08T22:41:37.938Z,55.74
2019-03-08T22:43:48.728Z,55.67
2019-03-08T22:45:59.574Z,55.80
2019-03-08T22:48:10.389Z,55.94
2019-03-08T22:50:21.214Z,55.77
2019-03-08T22:52:32.039Z,55.83
2019-03-08T22:54:42.847Z,55.83
2019-03-08T22:56:55.591Z,56.22
2019-03-08T22:59:08.417Z,56.05
2019-03-08T23:02:00.925Z,56.21
2019-03-08T23:04:11.837Z,56.37
2019-03-08T23:06:22.621Z,56.46
2019-03-08T23:08:33.459Z,56.61
2019-03-08T23:10:44.282Z,56.42
2019-03-08T23:12:55.111Z,56.20
2019-03-08T23:15:47.554Z,56.54
2019-03-08T23:17:58.379Z,56.40
2019-03-08T23:20:09.184Z,56.49
2019-03-08T23:22:20.012Z,56.75
2019-03-08T23:24:30.835Z,57.01
2019-03-08T23:29:33.904Z,57.07
2019-03-08T23:32:04.598Z,57.15
2019-03-08T23:34:15.591Z,57.02
2019-03-08T23:36:26.435Z,57.26
2019-03-08T23:38:37.236Z,57.18
2019-03-08T23:40:48.059Z,57.19
2019-03-08T23:42:58.863Z,57.15
2019-03-08T23:45:51.385Z,57.21
2019-03-08T23:48:02.209Z,57.26
2019-03-08T23:50:13.103Z,57.22
2019-03-08T23:52:25.829Z,57.06
2019-03-08T23:54:38.564Z,57.24
2019-03-08T23:56:49.432Z,57.08
2019-03-08T23:59:00.267Z,57.14
